Flight Track Log - Related Links

Times and Time Zones

All times are in EDT time to prevent confusion due to time zone crossing. See the CES2212 flight status page for this flight to view local times or setup timezone preferences in your user account.

Time Position Orientation Groundspeed Altitude Reporting Facility
EDT Latitude Longitude Course Direction KTS MPH feet Rate Location/Type
Fri 10:13:00 PM 37.4564 109.5144 192° South  Level Estimated
Fri 10:14:00 PM 37.3751 109.4930 192° South  Level Estimated
Fri 10:15:00 PM 37.2938 109.4716 192° South  Level Estimated
Fri 10:16:00 PM 37.2125 109.4503 192° South  Level Estimated
Fri 10:17:00 PM 37.1312 109.4290 192° South  Level Estimated
Fri 10:18:00 PM 37.0499 109.4078 192° South  Level Estimated
Fri 10:19:00 PM 36.9686 109.3866 192° South  Level Estimated
Fri 10:20:00 PM 36.8873 109.3655 192° South  Level Estimated
Fri 10:21:00 PM 36.8060 109.3444 192° South  Level Estimated
Fri 10:22:00 PM 36.7246 109.3233 192° South  Level Estimated
Fri 10:23:00 PM 36.6433 109.3024 192° South  Level Estimated
Fri 10:24:00 PM 36.5620 109.2814 192° South  Level Estimated
Fri 10:25:00 PM 36.4806 109.2605 192° South  Level Estimated
Fri 10:26:00 PM 36.3993 109.2396 192° South  Level Estimated
Fri 10:27:00 PM 36.3180 109.2188 192° South  Level Estimated
Fri 10:28:00 PM 36.2366 109.1980 192° South  Level Estimated
Fri 10:29:00 PM 36.1553 109.1773 192° South  Level Estimated
Fri 10:30:00 PM 36.0739 109.1566 192° South  Level Estimated
Fri 10:31:00 PM 35.9925 109.1359 192° South  Level Estimated
Fri 10:32:00 PM 35.9112 109.1153 192° South  Level Estimated
Fri 10:33:00 PM 35.8298 109.0947 192° South  Level Estimated
Fri 10:34:00 PM 35.7484 109.0742 192° South  Level Estimated
Fri 10:35:00 PM 35.6671 109.0537 192° South  Level Estimated
Fri 10:36:00 PM 35.5857 109.0333 192° South  Level Estimated
Fri 10:37:00 PM 35.5043 109.0129 192° South  Level Estimated
Fri 10:38:00 PM 35.4229 108.9925 192° South  Level Estimated
Fri 10:39:00 PM 35.3415 108.9722 192° South  Level Estimated
Fri 10:40:00 PM 35.2602 108.9519 192° South  Level Estimated
Fri 10:41:00 PM 35.1788 108.9317 191° South  Level Estimated
Fri 10:42:00 PM 35.0974 108.9115 191° South  Level Estimated
Fri 10:43:00 PM 35.0160 108.8913 191° South  Level Estimated
Fri 10:44:00 PM 34.9346 108.8712 191° South  Level Estimated
Fri 10:45:00 PM 34.8531 108.8511 191° South  Level Estimated
Fri 10:46:00 PM 34.7717 108.8311 191° South  Level Estimated
Fri 10:47:00 PM 34.6903 108.8111 191° South  Level Estimated
Fri 10:48:00 PM 34.6089 108.7911 191° South  Level Estimated
Fri 10:49:00 PM 34.5275 108.7712 191° South  Level Estimated
Fri 10:50:00 PM 34.4471 108.7516 191° South  Level Estimated
Fri 10:51:00 PM 34.4471 108.7516 121° Southeast  Level Estimated
Fri 10:52:00 PM 34.4471 108.7516 121° Southeast  Level Estimated
Fri 10:53:00 PM 34.4471 108.7516 121° Southeast  Level Estimated
Fri 10:54:00 PM 34.4471 108.7516 121° Southeast  Level Estimated
Fri 10:55:00 PM 34.4471 108.7516 121° Southeast  Level Estimated
Fri 10:56:00 PM 34.4471 108.7516 121° Southeast  Level Estimated
Fri 10:57:00 PM 34.4471 108.7516 121° Southeast  Level Estimated
Fri 10:58:00 PM 34.4471 108.7516 121° Southeast  Level Estimated
Fri 10:59:00 PM 34.4471 108.7516 121° Southeast  Level Estimated
Fri 11:00:00 PM 34.4471 108.7516 121° Southeast  Level Estimated
Fri 11:01:00 PM 34.4471 108.7516 121° Southeast  Level Estimated
Fri 11:02:00 PM 34.4471 108.7516 121° Southeast  Level Estimated
Fri 11:03:00 PM 34.4471 108.7516 121° Southeast  Level Estimated
Fri 11:04:00 PM 34.4471 108.7516 121° Southeast  Level Estimated
Fri 11:05:00 PM 34.4471 108.7516 121° Southeast  Level Estimated

Login

Don't have an account? Register now (free) for customized features, flight alerts, and more!